createdAt,value
2019-05-01T00:01:25.050Z,60.20
2019-05-01T00:03:56.450Z,60.30
2019-05-01T00:06:28.057Z,59.90
2019-05-01T00:08:57.877Z,60.10
2019-05-01T00:11:27.773Z,60.20
2019-05-01T00:13:57.653Z,60.50
2019-05-01T00:16:27.417Z,60.50
2019-05-01T00:18:57.296Z,60.70
2019-05-01T00:21:27.172Z,60.90
2019-05-01T00:23:57.910Z,61.90
2019-05-01T00:26:27.701Z,61.70
2019-05-01T00:28:57.581Z,61.40
2019-05-01T00:31:27.341Z,61.60
2019-05-01T00:33:57.162Z,62.20
2019-05-01T00:36:26.957Z,61.80
2019-05-01T00:38:57.542Z,62.30
2019-05-01T00:41:27.333Z,63.50
2019-05-01T00:43:58.109Z,62.70
2019-05-01T00:46:27.962Z,62.80
2019-05-01T00:48:58.028Z,63.20
2019-05-01T00:51:27.780Z,63.40
2019-05-01T00:53:57.625Z,63.40
2019-05-01T00:56:31.745Z,63.40
2019-05-01T00:59:04.354Z,63.80
2019-05-01T01:01:52.054Z,63.50
2019-05-01T01:04:22.004Z,63.20
2019-05-01T01:06:51.764Z,63.40
2019-05-01T01:09:21.730Z,63.90
2019-05-01T01:11:51.729Z,64.20
2019-05-01T01:14:21.517Z,63.70
2019-05-01T01:16:51.310Z,63.80
2019-05-01T01:19:21.099Z,64.30
2019-05-01T01:21:51.035Z,63.90
2019-05-01T01:24:20.805Z,64.10
2019-05-01T01:26:50.724Z,64.50
2019-05-01T01:29:21.523Z,64.30
2019-05-01T01:31:51.399Z,64.10
2019-05-01T01:34:22.129Z,64.50
2019-05-01T01:36:52.003Z,65.20
2019-05-01T01:39:22.516Z,65.50
2019-05-01T01:41:52.517Z,65.60
2019-05-01T01:44:24.442Z,65.80
2019-05-01T01:46:56.081Z,65.80
2019-05-01T01:49:25.861Z,65.40
2019-05-01T01:51:55.857Z,65.50
2019-05-01T01:54:25.905Z,65.00
2019-05-01T01:56:56.131Z,65.50
2019-05-01T01:59:26.394Z,65.60
2019-05-01T02:02:01.555Z,65.10
2019-05-01T02:04:51.121Z,65.40
2019-05-01T02:07:22.336Z,65.40
2019-05-01T02:09:52.246Z,65.50
2019-05-01T02:12:23.044Z,66.10
2019-05-01T02:14:52.873Z,65.70
2019-05-01T02:17:22.773Z,65.50
2019-05-01T02:19:52.602Z,65.80
2019-05-01T02:22:22.374Z,65.80
2019-05-01T02:24:52.273Z,66.40
2019-05-01T02:27:23.773Z,65.60
2019-05-01T02:29:55.829Z,66.00
2019-05-01T02:32:28.907Z,66.20
2019-05-01T02:34:59.862Z,66.00
2019-05-01T02:37:32.457Z,66.00
2019-05-01T02:40:05.634Z,66.70
2019-05-01T02:42:38.475Z,66.50
2019-05-01T02:45:09.963Z,66.40
2019-05-01T02:47:41.639Z,66.80
2019-05-01T02:50:12.475Z,67.00
2019-05-01T02:52:44.000Z,67.30
2019-05-01T02:55:15.953Z,67.10
2019-05-01T02:57:46.710Z,67.10
2019-05-01T03:00:17.669Z,66.90
2019-05-01T03:02:47.971Z,66.80
2019-05-01T03:05:17.748Z,67.10
2019-05-01T03:07:47.735Z,67.40
2019-05-01T03:10:17.948Z,67.50
2019-05-01T03:12:49.104Z,67.70
2019-05-01T03:15:21.522Z,67.60
2019-05-01T03:18:02.156Z,67.60
2019-05-01T03:20:49.574Z,67.60
2019-05-01T03:23:24.107Z,67.60
2019-05-01T03:25:54.339Z,68.10
2019-05-01T03:28:24.782Z,67.20
2019-05-01T03:30:54.977Z,67.80
2019-05-01T03:33:24.927Z,67.80
2019-05-01T03:35:55.182Z,68.30
2019-05-01T03:38:25.391Z,68.70
2019-05-01T03:40:56.040Z,69.00
2019-05-01T03:43:26.149Z,69.10
2019-05-01T03:45:56.388Z,69.20
2019-05-01T03:48:26.541Z,69.40
2019-05-01T03:50:56.481Z,69.50
2019-05-01T03:53:26.448Z,69.30
2019-05-01T03:55:56.334Z,69.10
2019-05-01T03:58:27.199Z,68.90
2019-05-01T04:01:07.774Z,69.00
2019-05-01T04:03:39.760Z,68.80
2019-05-01T04:06:09.699Z,68.30
2019-05-01T04:08:39.721Z,68.70
2019-05-01T04:11:10.264Z,69.20
2019-05-01T04:13:40.464Z,69.00
2019-05-01T04:16:10.290Z,68.80
2019-05-01T04:18:40.397Z,68.70
2019-05-01T04:21:10.744Z,68.90
2019-05-01T04:23:42.708Z,68.90
2019-05-01T04:26:12.817Z,69.10
2019-05-01T04:28:47.798Z,70.00
2019-05-01T04:31:25.738Z,70.30
2019-05-01T04:33:57.210Z,70.50
2019-05-01T04:36:34.614Z,70.20
2019-05-01T04:39:07.022Z,69.90
2019-05-01T04:41:36.899Z,69.10
2019-05-01T04:44:06.902Z,68.30
2019-05-01T04:46:36.860Z,67.90
2019-05-01T04:49:06.643Z,67.70
2019-05-01T04:51:36.611Z,67.60
2019-05-01T04:54:06.382Z,67.60
2019-05-01T04:56:36.416Z,67.70
2019-05-01T04:59:06.886Z,67.90
2019-05-01T05:01:56.767Z,68.10
2019-05-01T05:04:26.722Z,68.10
2019-05-01T05:06:57.546Z,68.20
2019-05-01T05:09:41.986Z,68.50
2019-05-01T05:12:14.000Z,68.70
2019-05-01T05:14:45.615Z,68.90
2019-05-01T05:17:17.114Z,68.90
2019-05-01T05:19:47.530Z,68.80
2019-05-01T05:22:18.448Z,68.70
2019-05-01T05:24:48.375Z,68.70
2019-05-01T05:27:18.690Z,68.70
2019-05-01T05:29:49.465Z,68.70
2019-05-01T05:32:20.837Z,68.30
2019-05-01T05:34:53.713Z,67.90
2019-05-01T05:37:28.952Z,67.60
2019-05-01T05:40:01.259Z,67.30
2019-05-01T05:42:31.618Z,67.10
2019-05-01T05:45:01.840Z,67.00
2019-05-01T05:47:31.833Z,67.00
2019-05-01T05:50:04.027Z,66.80
2019-05-01T05:52:39.013Z,66.70
2019-05-01T05:55:10.878Z,66.80
2019-05-01T05:57:56.180Z,66.90
2019-05-01T06:00:37.760Z,67.10
2019-05-01T06:03:31.370Z,66.90
2019-05-01T06:06:03.006Z,66.80
2019-05-01T06:08:35.865Z,66.90
2019-05-01T06:11:07.858Z,66.80
2019-05-01T06:13:57.174Z,66.70
2019-05-01T06:16:51.919Z,66.60
2019-05-01T06:19:38.894Z,66.30
2019-05-01T06:22:11.670Z,66.70
2019-05-01T06:24:44.070Z,66.80
2019-05-01T06:27:15.053Z,66.80
2019-05-01T06:29:44.994Z,66.70
2019-05-01T06:32:14.767Z,66.60
2019-05-01T06:34:44.721Z,66.50
2019-05-01T06:37:14.755Z,66.50
2019-05-01T06:39:48.041Z,66.40
2019-05-01T06:42:17.258Z,66.50
2019-05-01T06:44:52.566Z,66.30
2019-05-01T06:47:24.061Z,66.10
2019-05-01T06:50:06.023Z,65.80
2019-05-01T06:52:34.895Z,65.70
2019-05-01T06:55:05.299Z,65.50
2019-05-01T06:57:38.279Z,65.80
2019-05-01T07:00:10.464Z,65.60
2019-05-01T07:02:41.569Z,65.10
2019-05-01T07:05:14.542Z,64.90
2019-05-01T07:07:48.272Z,64.60
2019-05-01T07:10:29.889Z,64.50
2019-05-01T07:12:50.027Z,64.20
2019-05-01T07:15:21.977Z,64.10
2019-05-01T07:17:52.009Z,63.90
2019-05-01T07:20:35.446Z,63.70
2019-05-01T07:23:05.974Z,63.50
2019-05-01T07:25:39.394Z,63.30
2019-05-01T07:28:07.369Z,63.00
2019-05-01T07:30:42.049Z,62.70
2019-05-01T07:33:16.498Z,62.50
2019-05-01T07:35:45.014Z,62.00
2019-05-01T07:38:16.092Z,62.20
2019-05-01T07:40:46.800Z,61.60
2019-05-01T07:43:27.271Z,61.00
2019-05-01T07:46:02.265Z,59.80
2019-05-01T07:48:41.582Z,58.90
2019-05-01T07:51:10.437Z,58.50
2019-05-01T07:53:41.089Z,58.20
2019-05-01T07:56:11.113Z,57.80
2019-05-01T07:58:41.129Z,58.00
2019-05-01T08:01:18.116Z,57.70
2019-05-01T08:03:44.749Z,57.50
2019-05-01T08:06:16.393Z,57.30
2019-05-01T08:08:47.169Z,57.40
2019-05-01T08:11:17.097Z,56.40
2019-05-01T08:13:46.936Z,56.50
2019-05-01T08:16:16.832Z,56.40
2019-05-01T08:18:50.968Z,56.30
2019-05-01T08:21:26.138Z,56.30
2019-05-01T08:23:55.610Z,56.60
2019-05-01T08:26:25.393Z,56.60
2019-05-01T08:29:06.590Z,56.80
2019-05-01T08:31:36.606Z,56.90
2019-05-01T08:34:08.109Z,57.00
2019-05-01T08:36:37.946Z,57.00
2019-05-01T08:39:09.144Z,57.20
2019-05-01T08:41:39.831Z,57.50
2019-05-01T08:44:09.750Z,57.70
2019-05-01T08:46:46.768Z,57.60
2019-05-01T08:49:23.497Z,57.70
2019-05-01T08:51:53.342Z,57.70
2019-05-01T08:54:23.251Z,57.70
2019-05-01T08:56:57.965Z,57.70
2019-05-01T08:59:25.810Z,57.70
2019-05-01T09:02:08.800Z,57.80
2019-05-01T09:04:30.313Z,58.00
2019-05-01T09:06:58.710Z,57.70
2019-05-01T09:09:28.654Z,58.00
2019-05-01T09:11:58.473Z,58.10
2019-05-01T09:14:29.973Z,57.80
2019-05-01T09:16:59.817Z,57.70
2019-05-01T09:19:30.370Z,58.00
2019-05-01T09:22:00.149Z,57.70
2019-05-01T09:24:30.373Z,58.00
2019-05-01T09:27:24.169Z,57.80
2019-05-01T09:29:54.137Z,58.20
2019-05-01T09:32:24.267Z,58.10
2019-05-01T09:34:54.046Z,57.50
2019-05-01T09:37:23.825Z,56.30
2019-05-01T09:39:53.810Z,54.50
2019-05-01T09:42:25.356Z,52.50
2019-05-01T09:44:55.191Z,51.70
2019-05-01T09:47:26.932Z,50.70
2019-05-01T09:49:56.889Z,49.90
2019-05-01T09:52:44.390Z,48.50
2019-05-01T09:55:23.094Z,47.40
2019-05-01T09:57:53.628Z,46.60
2019-05-01T10:00:29.863Z,46.10
2019-05-01T10:02:59.723Z,45.90
2019-05-01T10:05:29.596Z,45.80
2019-05-01T10:08:00.059Z,45.50
2019-05-01T10:10:31.220Z,45.70
2019-05-01T10:13:01.046Z,45.10
2019-05-01T10:15:30.957Z,45.10
2019-05-01T10:18:00.761Z,45.00
2019-05-01T10:20:30.569Z,45.40
2019-05-01T10:23:00.357Z,45.60
2019-05-01T10:25:30.175Z,46.00
2019-05-01T10:28:12.904Z,46.90
2019-05-01T10:30:59.591Z,46.40
2019-05-01T10:33:40.780Z,46.60
2019-05-01T10:36:18.856Z,47.30
2019-05-01T10:38:46.890Z,47.40
2019-05-01T10:41:17.098Z,48.00
2019-05-01T10:43:46.878Z,47.90
2019-05-01T10:46:16.713Z,47.80
2019-05-01T10:48:47.677Z,47.80
2019-05-01T10:51:17.509Z,47.80
2019-05-01T10:53:47.477Z,47.60
2019-05-01T10:56:17.382Z,47.70
2019-05-01T10:58:47.213Z,47.80
2019-05-01T11:01:22.604Z,48.50
2019-05-01T11:03:53.468Z,47.70
2019-05-01T11:06:23.300Z,47.90
2019-05-01T11:08:54.092Z,48.00
2019-05-01T11:11:23.925Z,47.90
2019-05-01T11:13:53.857Z,47.90
2019-05-01T11:16:24.642Z,47.60
2019-05-01T11:18:54.440Z,47.30
2019-05-01T11:21:24.301Z,47.30
2019-05-01T11:23:54.399Z,47.30
2019-05-01T11:26:24.361Z,46.70
2019-05-01T11:28:54.325Z,47.10
2019-05-01T11:31:41.034Z,46.80
2019-05-01T11:34:28.457Z,46.20
2019-05-01T11:37:05.638Z,45.00
2019-05-01T11:39:40.967Z,45.00
2019-05-01T11:42:13.771Z,44.50
2019-05-01T11:44:43.598Z,44.30
2019-05-01T11:47:13.374Z,44.30
2019-05-01T11:49:43.190Z,44.20
2019-05-01T11:52:13.006Z,43.80
2019-05-01T11:54:42.787Z,42.80
2019-05-01T11:57:12.558Z,43.00
2019-05-01T11:59:42.377Z,42.60
2019-05-01T12:02:12.217Z,42.50
2019-05-01T12:04:41.994Z,42.20
2019-05-01T12:07:11.897Z,41.80
2019-05-01T12:09:41.688Z,42.60
2019-05-01T12:12:13.194Z,42.00
2019-05-01T12:14:43.098Z,41.20
2019-05-01T12:17:20.160Z,41.10
2019-05-01T12:19:49.939Z,40.70
2019-05-01T12:22:19.709Z,40.30
2019-05-01T12:24:49.591Z,40.90
2019-05-01T12:27:19.432Z,39.90
2019-05-01T12:29:50.185Z,40.20
2019-05-01T12:32:19.991Z,41.20
2019-05-01T12:34:49.913Z,41.50
2019-05-01T12:37:22.475Z,41.70
2019-05-01T12:39:52.357Z,42.00
2019-05-01T12:42:33.040Z,41.70
2019-05-01T12:45:04.992Z,42.00
2019-05-01T12:47:51.365Z,42.30
2019-05-01T12:50:22.205Z,42.20
2019-05-01T12:53:00.233Z,42.10
2019-05-01T12:55:47.821Z,42.00
2019-05-01T12:58:17.602Z,41.50
2019-05-01T13:00:53.387Z,42.10
2019-05-01T13:03:23.196Z,42.40
2019-05-01T13:05:52.974Z,42.40
2019-05-01T13:08:22.801Z,41.50
2019-05-01T13:10:52.751Z,41.30
2019-05-01T13:13:22.581Z,41.20
2019-05-01T13:15:52.481Z,41.70
2019-05-01T13:18:22.366Z,41.30
2019-05-01T13:20:52.253Z,41.20
2019-05-01T13:23:22.079Z,40.80
2019-05-01T13:25:54.494Z,40.20
2019-05-01T13:28:47.849Z,40.00
2019-05-01T13:31:28.488Z,40.00
2019-05-01T13:33:58.321Z,39.70
2019-05-01T13:36:28.226Z,39.40
2019-05-01T13:38:58.053Z,39.20
2019-05-01T13:41:27.829Z,38.60
2019-05-01T13:43:57.792Z,38.90
2019-05-01T13:46:27.615Z,38.30
2019-05-01T13:48:57.441Z,37.80
2019-05-01T13:51:27.692Z,38.40
2019-05-01T13:53:57.503Z,38.20
2019-05-01T13:56:27.429Z,38.10
2019-05-01T13:58:58.246Z,38.30
2019-05-01T14:01:28.226Z,37.70
2019-05-01T14:03:58.106Z,37.40
2019-05-01T14:06:27.877Z,37.00
2019-05-01T14:08:57.761Z,36.50
2019-05-01T14:11:27.733Z,35.00
2019-05-01T14:13:57.553Z,35.60
2019-05-01T14:16:27.445Z,35.70
2019-05-01T14:18:57.349Z,36.30
2019-05-01T14:21:28.825Z,36.10
2019-05-01T14:24:02.998Z,35.00
2019-05-01T14:26:33.965Z,35.30
2019-05-01T14:29:04.794Z,35.30
2019-05-01T14:31:34.641Z,35.80
2019-05-01T14:34:05.234Z,36.30
2019-05-01T14:36:35.007Z,35.90
2019-05-01T14:39:06.813Z,36.20
2019-05-01T14:41:38.249Z,35.70
2019-05-01T14:44:08.155Z,35.70
2019-05-01T14:46:38.030Z,35.30
2019-05-01T14:49:07.871Z,35.80
2019-05-01T14:51:37.717Z,34.90
2019-05-01T14:54:07.669Z,34.50
2019-05-01T14:56:37.482Z,34.30
2019-05-01T14:59:07.630Z,34.70
2019-05-01T15:01:38.338Z,34.80
2019-05-01T15:04:08.823Z,34.90
2019-05-01T15:06:38.597Z,34.50
2019-05-01T15:09:09.349Z,34.10
2019-05-01T15:11:40.258Z,34.80
2019-05-01T15:14:17.777Z,34.60
2019-05-01T15:16:52.084Z,35.00
2019-05-01T15:19:23.503Z,34.80
2019-05-01T15:21:53.558Z,34.50
2019-05-01T15:24:23.494Z,35.00
2019-05-01T15:26:53.339Z,34.70
2019-05-01T15:29:23.114Z,35.80
2019-05-01T15:31:52.893Z,35.30
2019-05-01T15:34:22.862Z,35.30
2019-05-01T15:36:52.629Z,35.00
2019-05-01T15:39:24.768Z,35.40
2019-05-01T15:42:02.693Z,35.40
2019-05-01T15:44:34.125Z,35.80
2019-05-01T15:47:04.322Z,35.50
2019-05-01T15:49:34.482Z,35.70
2019-05-01T15:52:04.517Z,36.10
2019-05-01T15:54:34.421Z,36.70
2019-05-01T15:57:04.774Z,36.50
2019-05-01T15:59:34.593Z,36.40
2019-05-01T16:02:04.496Z,36.70
2019-05-01T16:04:34.385Z,37.10
2019-05-01T16:07:04.178Z,37.30
2019-05-01T16:09:34.065Z,37.80
2019-05-01T16:12:20.977Z,37.70
2019-05-01T16:14:50.941Z,37.70
2019-05-01T16:17:20.718Z,37.60
2019-05-01T16:19:50.490Z,38.00
2019-05-01T16:22:21.230Z,38.50
2019-05-01T16:24:51.056Z,38.30
2019-05-01T16:27:20.829Z,38.50
2019-05-01T16:29:50.602Z,38.50
2019-05-01T16:32:20.529Z,38.60
2019-05-01T16:34:50.309Z,39.00
2019-05-01T16:37:21.207Z,39.30
2019-05-01T16:39:52.775Z,39.60
2019-05-01T16:42:23.310Z,39.80
2019-05-01T16:44:53.085Z,39.90
2019-05-01T16:47:22.919Z,40.20
2019-05-01T16:49:52.771Z,40.40
2019-05-01T16:52:24.312Z,40.70
2019-05-01T16:54:59.356Z,40.70
2019-05-01T16:57:25.737Z,40.90
2019-05-01T16:59:55.543Z,40.80
2019-05-01T17:02:36.789Z,40.90
2019-05-01T17:05:25.491Z,41.00
2019-05-01T17:08:02.802Z,41.20
2019-05-01T17:10:43.105Z,41.20
2019-05-01T17:13:13.340Z,41.00
2019-05-01T17:15:44.926Z,41.00
2019-05-01T17:18:15.828Z,41.10
2019-05-01T17:20:45.733Z,41.30
2019-05-01T17:23:15.548Z,41.40
2019-05-01T17:25:45.352Z,41.40
2019-05-01T17:28:15.451Z,42.00
2019-05-01T17:30:48.741Z,41.80
2019-05-01T17:33:20.691Z,42.00
2019-05-01T17:35:50.041Z,42.10
2019-05-01T17:38:20.058Z,42.10
2019-05-01T17:40:52.126Z,42.40
2019-05-01T17:43:21.618Z,42.60
2019-05-01T17:45:51.388Z,42.70
2019-05-01T17:48:34.891Z,43.40
2019-05-01T17:51:04.802Z,43.50
2019-05-01T17:53:34.576Z,43.70
2019-05-01T17:56:10.092Z,44.00
2019-05-01T17:58:37.009Z,44.20
2019-05-01T18:01:08.482Z,44.60
2019-05-01T18:03:42.598Z,44.70
2019-05-01T18:06:20.900Z,44.90
2019-05-01T18:09:02.457Z,45.00
2019-05-01T18:11:22.197Z,45.10
2019-05-01T18:13:51.997Z,45.20
2019-05-01T18:16:22.237Z,45.30
2019-05-01T18:18:52.244Z,45.40
2019-05-01T18:21:23.558Z,45.20
2019-05-01T18:23:55.718Z,45.50
2019-05-01T18:26:27.652Z,45.70
2019-05-01T18:29:06.038Z,45.70
2019-05-01T18:31:37.780Z,46.00
2019-05-01T18:34:07.906Z,45.80
2019-05-01T18:36:42.736Z,46.00
2019-05-01T18:39:16.744Z,46.10
2019-05-01T18:41:53.805Z,46.30
2019-05-01T18:44:23.667Z,46.40
2019-05-01T18:46:53.530Z,46.60
2019-05-01T18:49:23.305Z,46.50
2019-05-01T18:51:53.090Z,46.50
2019-05-01T18:54:22.960Z,46.60
2019-05-01T18:56:54.692Z,47.00
2019-05-01T18:59:24.734Z,47.00
2019-05-01T19:01:54.896Z,46.90
2019-05-01T19:04:24.843Z,47.70
2019-05-01T19:06:55.482Z,47.40
2019-05-01T19:09:30.324Z,47.10
2019-05-01T19:11:57.936Z,47.20
2019-05-01T19:14:30.832Z,47.10
2019-05-01T19:17:01.422Z,47.30
2019-05-01T19:19:32.226Z,47.60
2019-05-01T19:22:02.968Z,47.70
2019-05-01T19:24:38.059Z,48.30
2019-05-01T19:27:04.785Z,48.50
2019-05-01T19:29:34.608Z,48.70
2019-05-01T19:32:05.407Z,49.30
2019-05-01T19:34:35.192Z,50.00
2019-05-01T19:37:05.128Z,49.80
2019-05-01T19:39:43.379Z,50.30
2019-05-01T19:42:06.797Z,50.80
2019-05-01T19:44:36.626Z,51.30
2019-05-01T19:47:07.869Z,51.70
2019-05-01T19:49:38.866Z,51.50
2019-05-01T19:52:08.706Z,52.00
2019-05-01T19:54:38.522Z,51.90
2019-05-01T19:57:09.147Z,52.10
2019-05-01T19:59:39.099Z,52.40
2019-05-01T20:02:10.544Z,53.00
2019-05-01T20:04:40.700Z,53.00
2019-05-01T20:07:15.514Z,53.30
2019-05-01T20:09:42.159Z,53.30
2019-05-01T20:12:13.062Z,53.50
2019-05-01T20:14:42.966Z,54.10
2019-05-01T20:17:12.849Z,54.60
2019-05-01T20:19:42.810Z,54.80
2019-05-01T20:22:12.707Z,55.00
2019-05-01T20:24:44.316Z,54.90
2019-05-01T20:27:14.093Z,55.00
2019-05-01T20:29:43.877Z,55.60
2019-05-01T20:32:13.645Z,55.80
2019-05-01T20:34:43.445Z,56.20
2019-05-01T20:37:13.218Z,55.70
2019-05-01T20:39:43.002Z,56.10
2019-05-01T20:42:12.820Z,56.10
2019-05-01T20:44:42.607Z,56.40
2019-05-01T20:47:12.499Z,56.70
2019-05-01T20:49:42.554Z,56.80
2019-05-01T20:52:12.372Z,56.90
2019-05-01T20:54:42.145Z,57.30
2019-05-01T20:57:23.226Z,57.30
2019-05-01T20:59:53.869Z,57.70
2019-05-01T21:02:23.759Z,57.70
2019-05-01T21:05:11.389Z,58.10
2019-05-01T21:07:43.718Z,58.70
2019-05-01T21:10:24.235Z,58.70
2019-05-01T21:12:45.473Z,59.00
2019-05-01T21:15:15.405Z,59.60
2019-05-01T21:17:49.257Z,59.70
2019-05-01T21:20:17.064Z,60.00
2019-05-01T21:22:47.575Z,59.90
2019-05-01T21:25:17.481Z,59.70
2019-05-01T21:27:47.329Z,60.00
2019-05-01T21:30:17.170Z,60.00
2019-05-01T21:32:46.982Z,60.40
2019-05-01T21:35:16.887Z,60.80
2019-05-01T21:37:46.690Z,60.50
2019-05-01T21:40:16.653Z,60.60
2019-05-01T21:42:47.266Z,60.80
2019-05-01T21:45:18.100Z,61.40
2019-05-01T21:47:47.939Z,62.10
2019-05-01T21:50:21.825Z,62.20
2019-05-01T21:52:49.221Z,62.40
2019-05-01T21:55:20.191Z,62.50
2019-05-01T21:57:51.270Z,62.80
2019-05-01T22:00:24.812Z,62.90
2019-05-01T22:02:54.705Z,63.00
2019-05-01T22:05:24.614Z,63.40
2019-05-01T22:07:58.687Z,63.60
2019-05-01T22:10:28.286Z,63.10
2019-05-01T22:12:57.882Z,63.50
2019-05-01T22:15:29.654Z,63.40
2019-05-01T22:18:01.210Z,63.50
2019-05-01T22:20:41.528Z,63.40
2019-05-01T22:23:17.059Z,63.70
2019-05-01T22:25:46.565Z,63.60
2019-05-01T22:28:34.235Z,63.60
2019-05-01T22:31:11.702Z,63.50
2019-05-01T22:33:42.959Z,63.90
2019-05-01T22:36:13.652Z,64.10
2019-05-01T22:38:46.426Z,64.80
2019-05-01T22:41:14.981Z,64.40
2019-05-01T22:43:44.821Z,64.80
2019-05-01T22:46:16.350Z,65.10
2019-05-01T22:48:46.193Z,65.30
2019-05-01T22:51:20.428Z,65.10
2019-05-01T22:53:56.990Z,65.50
2019-05-01T22:56:26.910Z,65.60
2019-05-01T22:58:56.724Z,65.00
2019-05-01T23:01:26.671Z,65.00
2019-05-01T23:03:58.146Z,64.80
2019-05-01T23:06:27.977Z,65.00
2019-05-01T23:08:57.797Z,65.40
2019-05-01T23:11:29.414Z,65.60
2019-05-01T23:13:59.296Z,65.70
2019-05-01T23:16:31.690Z,65.90
2019-05-01T23:19:01.505Z,66.20
2019-05-01T23:21:31.313Z,65.80
2019-05-01T23:24:03.481Z,66.10
2019-05-01T23:26:33.458Z,65.90
2019-05-01T23:29:03.242Z,66.50
2019-05-01T23:31:33.026Z,67.10
2019-05-01T23:34:02.868Z,67.00
2019-05-01T23:36:32.657Z,66.60
2019-05-01T23:39:02.449Z,67.10
2019-05-01T23:41:45.150Z,67.20
2019-05-01T23:44:06.662Z,67.20
2019-05-01T23:46:36.497Z,67.10
2019-05-01T23:49:06.286Z,67.00
2019-05-01T23:51:36.123Z,67.40
2019-05-01T23:54:05.949Z,67.60
2019-05-01T23:56:36.382Z,67.40
2019-05-01T23:59:06.243Z,67.90
